Time;durP1;ratioP1;P1;durP2;ratioP2;P2;SDS_P1;SDS_P2;PMS_P1;PMS_P2;Temp;Humidity;BMP_temperature;BMP_pressure;BME280_temperature;BME280_humidity;BME280_pressure;Samples;Min_cycle;Max_cycle;Signal;HPM_P1;HPM_P2
2022/10/26 00:02:24;;;;;;;;;;;;;;;16.98;47.76;100969.09;4958803;28;1196;-56
2022/10/26 00:04:50;;;;;;;;;;;;;;;17.75;48.30;100974.66;4958273;28;1145;-55
2022/10/26 00:07:15;;;;;;;;;;;;;;;17.16;48.57;100970.50;4958380;28;943;-57
2022/10/26 00:09:40;;;;;;;;;;;;;;;17.04;47.85;100979.03;4957944;28;1195;-57
2022/10/26 00:12:06;;;;;;;;;;;;;;;17.00;47.01;100980.66;4958108;28;1180;-56
2022/10/26 00:14:31;;;;;;;;;;;;;;;17.57;48.33;100978.78;4945324;28;1223;-57
2022/10/26 00:16:57;;;;;;;;;;;;;;;17.13;48.18;100992.22;4976961;28;1977;-57
2022/10/26 00:19:22;;;;;;;;;;;;;;;16.91;47.69;100991.34;4956404;28;1150;-58
2022/10/26 00:21:47;;;;;;;;;;;;;;;18.03;48.07;100988.94;4958006;28;1177;-58
2022/10/26 00:24:13;;;;;;;;;;;;;;;17.35;48.72;100997.44;4958139;28;1232;-56
2022/10/26 00:26:38;;;;;;;;;;;;;;;17.17;47.61;100993.34;4956729;28;2468;-57
2022/10/26 00:29:04;;;;;;;;;;;;;;;16.94;47.23;100984.47;4958177;29;1163;-57
2022/10/26 00:31:29;;;;;;;;;;;;;;;17.02;46.40;100981.19;4957775;28;935;-57
2022/10/26 00:33:55;;;;;;;;;;;;;;;16.98;47.27;100990.25;4958253;28;1133;-58
2022/10/26 00:36:21;;;;;;;;;;;;;;;17.57;48.11;100988.94;4957878;28;1141;-58
2022/10/26 00:38:47;;;;;;;;;;;;;;;17.18;48.05;100990.31;4957916;28;1947;-58
2022/10/26 00:41:13;;;;;;;;;;;;;;;17.01;47.28;100993.31;4957865;28;1224;-58
2022/10/26 00:43:39;;;;;;;;;;;;;;;17.35;47.63;100995.53;4957645;28;880;-60
2022/10/26 00:46:05;;;;;;;;;;;;;;;17.35;48.08;101000.19;4957776;28;1126;-60
2022/10/26 00:48:32;;;;;;;;;;;;;;;17.02;47.75;100994.94;4983018;28;1184;-60
2022/10/26 00:50:58;;;;;;;;;;;;;;;16.92;47.14;101003.16;4951030;28;1150;-59
2022/10/26 00:53:23;;;;;;;;;;;;;;;16.89;46.49;100992.72;4978921;28;1133;-60
2022/10/26 00:55:49;;;;;;;;;;;;;;;17.65;47.60;100993.91;4961469;28;857;-59
2022/10/26 00:58:14;;;;;;;;;;;;;;;17.06;47.97;100990.53;4979164;28;2571;-56
2022/10/26 01:00:40;;;;;;;;;;;;;;;16.98;47.60;100974.59;4962081;28;1105;-56
2022/10/26 01:03:05;;;;;;;;;;;;;;;17.55;48.12;100985.66;4960946;28;1193;-60
2022/10/26 01:05:31;;;;;;;;;;;;;;;17.19;47.69;100985.63;4955755;28;1153;-57
2022/10/26 01:07:56;;;;;;;;;;;;;;;16.95;47.52;100991.63;4975050;28;922;-57
2022/10/26 01:10:22;;;;;;;;;;;;;;;17.99;47.63;100987.84;4987006;28;1199;-59
2022/10/26 01:12:47;;;;;;;;;;;;;;;17.28;48.41;100995.81;4960249;28;1172;-60
2022/10/26 01:15:13;;;;;;;;;;;;;;;17.10;47.75;100999.09;4961689;28;1165;-59
2022/10/26 01:17:44;;;;;;;;;;;;;;;16.99;47.01;100997.41;4978720;28;1905;-59
2022/10/26 01:20:39;;;;;;;;;;;;;;;17.12;47.18;101001.56;4961356;28;1019;-59
2022/10/26 01:23:08;;;;;;;;;;;;;;;17.53;48.52;100996.09;4944709;29;1495;-56
2022/10/26 01:26:08;;;;;;;;;;;;;;;17.20;48.11;100990.03;4942541;29;1228;-56
2022/10/26 01:28:45;;;;;;;;;;;;;;;16.99;47.33;100984.50;4949733;29;1213;-58
2022/10/26 01:31:11;;;;;;;;;;;;;;;16.96;46.76;100987.78;4957038;29;1213;-58
2022/10/26 01:33:38;;;;;;;;;;;;;;;16.81;46.48;100976.72;4982978;28;1215;-57
2022/10/26 01:36:07;;;;;;;;;;;;;;;17.13;47.26;100986.72;4988320;28;1114;-57
2022/10/26 01:38:32;;;;;;;;;;;;;;;17.61;48.20;100979.91;4961273;28;1980;-56
2022/10/26 01:40:57;;;;;;;;;;;;;;;17.19;47.86;100969.94;4961301;28;1156;-56
2022/10/26 01:43:23;;;;;;;;;;;;;;;16.91;47.70;100979.53;4960650;28;839;-56
2022/10/26 01:45:48;;;;;;;;;;;;;;;17.58;48.40;100977.66;4960937;28;1165;-56
2022/10/26 01:48:15;;;;;;;;;;;;;;;17.08;48.40;100990.28;4960947;28;1145;-56
2022/10/26 01:50:40;;;;;;;;;;;;;;;17.20;48.27;100987.28;4982503;28;1140;-56
2022/10/26 01:53:06;;;;;;;;;;;;;;;17.58;48.85;100994.16;4988170;28;1196;-56
2022/10/26 01:55:37;;;;;;;;;;;;;;;17.19;48.11;100991.13;4959870;28;1113;-58
2022/10/26 01:58:12;;;;;;;;;;;;;;;17.03;47.57;100991.09;4959808;29;2539;-58
2022/10/26 02:00:38;;;;;;;;;;;;;;;17.03;46.93;100982.84;4972563;28;1183;-56
2022/10/26 02:03:14;;;;;;;;;;;;;;;17.69;47.68;100984.00;4985882;28;1136;-56
2022/10/26 02:05:55;;;;;;;;;;;;;;;17.49;48.77;100986.75;4984553;28;1109;-56
2022/10/26 02:08:20;;;;;;;;;;;;;;;17.13;48.17;100986.72;4956018;29;1126;-58
2022/10/26 02:10:58;;;;;;;;;;;;;;;18.04;48.15;100987.84;4960284;28;1153;-56
2022/10/26 02:13:23;;;;;;;;;;;;;;;17.38;48.40;100986.75;4960362;28;1146;-57
2022/10/26 02:15:58;;;;;;;;;;;;;;;17.60;48.41;100991.16;4960303;28;1126;-59
2022/10/26 02:18:26;;;;;;;;;;;;;;;17.67;48.91;100986.22;4960405;28;1977;-58
2022/10/26 02:20:52;;;;;;;;;;;;;;;17.31;48.46;100988.94;4960051;28;931;-59
2022/10/26 02:23:18;;;;;;;;;;;;;;;17.11;47.85;100989.75;4982851;28;1097;-59
2022/10/26 02:25:45;;;;;;;;;;;;;;;17.03;47.23;100988.34;4986349;28;1141;-59
2022/10/26 02:28:11;;;;;;;;;;;;;;;17.00;46.43;100988.06;4991308;28;2685;-59
2022/10/26 02:30:37;;;;;;;;;;;;;;;17.77;47.66;100996.38;4959502;29;1193;-59
2022/10/26 02:33:02;;;;;;;;;;;;;;;17.18;47.85;100989.47;4960306;28;1153;-60
2022/10/26 02:35:28;;;;;;;;;;;;;;;17.01;47.32;100986.97;4980425;28;1089;-59
2022/10/26 02:37:55;;;;;;;;;;;;;;;16.95;46.76;100986.13;4974432;28;1913;-59
2022/10/26 02:40:21;;;;;;;;;;;;;;;16.98;46.81;100996.56;4982383;28;1192;-59
2022/10/26 02:42:46;;;;;;;;;;;;;;;17.54;48.01;101004.06;4972649;28;1129;-59
2022/10/26 02:45:13;;;;;;;;;;;;;;;17.08;48.17;101004.00;4960039;28;944;-59
2022/10/26 02:47:39;;;;;;;;;;;;;;;17.04;47.30;101017.47;4978284;28;1179;-59
2022/10/26 02:50:04;;;;;;;;;;;;;;;17.65;47.77;101015.91;4945410;28;1212;-60
2022/10/26 02:52:44;;;;;;;;;;;;;;;17.16;48.09;101011.72;4949235;28;1106;-57
2022/10/26 02:55:13;;;;;;;;;;;;;;;17.03;47.12;101024.06;4985529;28;1295;-59
2022/10/26 02:57:39;;;;;;;;;;;;;;;16.90;46.84;101030.06;4959755;28;2497;-59
2022/10/26 03:00:05;;;;;;;;;;;;;;;16.83;46.33;101037.69;4977119;28;1223;-57
2022/10/26 03:02:31;;;;;;;;;;;;;;;16.70;46.54;101034.34;4981503;28;1116;-59
2022/10/26 03:04:57;;;;;;;;;;;;;;;16.76;45.94;101037.97;4955464;29;1154;-59
2022/10/26 03:07:22;;;;;;;;;;;;;;;17.26;47.57;101039.25;4958217;29;1512;-58
2022/10/26 03:09:48;;;;;;;;;;;;;;;16.90;47.40;101036.38;4959588;28;1205;-58
2022/10/26 03:12:13;;;;;;;;;;;;;;;17.63;47.63;101045.59;4959337;28;1090;-58
2022/10/26 03:14:40;;;;;;;;;;;;;;;17.22;47.97;101048.28;4951591;28;1133;-57
2022/10/26 03:17:05;;;;;;;;;;;;;;;17.07;47.77;101060.91;4953188;28;1906;-57
2022/10/26 03:19:31;;;;;;;;;;;;;;;17.86;48.11;101060.72;4958716;28;1106;-57
2022/10/26 03:21:56;;;;;;;;;;;;;;;17.17;48.55;101068.34;4959172;28;1125;-60
2022/10/26 03:24:22;;;;;;;;;;;;;;;17.14;47.45;101059.78;4958795;28;1105;-58
2022/10/26 03:26:47;;;;;;;;;;;;;;;16.97;47.58;101063.63;4959028;28;2397;-57
2022/10/26 03:29:13;;;;;;;;;;;;;;;17.84;48.01;101067.59;4959492;28;1186;-57
2022/10/26 03:31:38;;;;;;;;;;;;;;;17.28;48.09;101066.44;4958609;28;1224;-57
2022/10/26 03:34:03;;;;;;;;;;;;;;;17.03;47.54;101058.97;4958942;28;1125;-58
2022/10/26 03:36:29;;;;;;;;;;;;;;;17.88;48.12;101065.94;4959072;28;1138;-58
2022/10/26 03:38:54;;;;;;;;;;;;;;;17.26;48.51;101074.97;4959051;28;1911;-57
2022/10/26 03:41:20;;;;;;;;;;;;;;;17.09;47.61;101066.13;4958885;28;1240;-58
2022/10/26 03:43:45;;;;;;;;;;;;;;;16.96;47.25;101075.69;4958976;28;1133;-58
2022/10/26 03:46:10;;;;;;;;;;;;;;;16.87;46.87;101077.25;4958500;29;1212;-58
2022/10/26 03:48:36;;;;;;;;;;;;;;;17.61;47.62;101091.78;4958555;28;1130;-58
2022/10/26 03:51:01;;;;;;;;;;;;;;;17.11;47.87;101088.66;4945219;28;1141;-57
2022/10/26 03:53:27;;;;;;;;;;;;;;;16.92;47.48;101082.81;4956854;28;1234;-57
2022/10/26 03:55:52;;;;;;;;;;;;;;;16.87;46.75;101080.84;4957425;28;1984;-60
2022/10/26 03:58:18;;;;;;;;;;;;;;;16.74;46.50;101084.88;4958819;28;1909;-59
2022/10/26 04:00:43;;;;;;;;;;;;;;;17.42;47.27;101086.81;4958601;28;1106;-58
2022/10/26 04:03:08;;;;;;;;;;;;;;;17.26;48.36;101079.63;4957967;28;1145;-58
2022/10/26 04:05:34;;;;;;;;;;;;;;;17.52;48.41;101082.44;4957871;28;1133;-59
2022/10/26 04:08:01;;;;;;;;;;;;;;;18.21;48.80;101085.78;4947364;28;1148;-59
2022/10/26 04:10:27;;;;;;;;;;;;;;;15.21;55.62;101085.28;4956957;28;1173;-59
2022/10/26 04:12:53;;;;;;;;;;;;;;;16.47;50.09;101089.69;4958209;28;1196;-60
2022/10/26 04:15:18;;;;;;;;;;;;;;;17.57;50.39;101093.44;4957355;28;1141;-59
2022/10/26 04:17:43;;;;;;;;;;;;;;;17.10;49.74;101098.81;4957620;28;1899;-58
2022/10/26 04:20:09;;;;;;;;;;;;;;;16.96;48.39;101111.41;4958073;28;1121;-58
2022/10/26 04:22:35;;;;;;;;;;;;;;;16.84;48.29;101110.75;4958033;28;1149;-57
2022/10/26 04:25:01;;;;;;;;;;;;;;;17.30;49.28;101115.66;4958068;28;1129;-58
2022/10/26 04:27:26;;;;;;;;;;;;;;;16.94;48.51;101116.31;4958272;28;2448;-59
2022/10/26 04:29:52;;;;;;;;;;;;;;;16.80;48.15;101123.38;4958271;28;1212;-59
2022/10/26 04:32:17;;;;;;;;;;;;;;;17.51;48.41;101124.78;4957706;28;1094;-58
2022/10/26 04:34:43;;;;;;;;;;;;;;;17.29;49.19;101123.06;4958148;28;1122;-56
2022/10/26 04:37:08;;;;;;;;;;;;;;;17.00;48.54;101119.91;4958072;28;1906;-58
2022/10/26 04:39:33;;;;;;;;;;;;;;;17.06;47.95;101121.59;4958025;28;1157;-54
2022/10/26 04:41:59;;;;;;;;;;;;;;;17.33;48.67;101121.41;4957972;28;1133;-57
2022/10/26 04:44:24;;;;;;;;;;;;;;;17.00;48.30;101129.00;4957799;28;1086;-60
2022/10/26 04:46:50;;;;;;;;;;;;;;;17.09;48.11;101132.88;4957729;28;1145;-59
2022/10/26 04:49:15;;;;;;;;;;;;;;;17.60;48.76;101139.66;4958118;28;1188;-59
2022/10/26 04:51:40;;;;;;;;;;;;;;;17.19;48.34;101145.81;4958292;28;1397;-59
2022/10/26 04:54:06;;;;;;;;;;;;;;;16.98;47.81;101150.41;4958069;28;1149;-58
2022/10/26 04:56:32;;;;;;;;;;;;;;;16.85;47.36;101146.19;4957234;28;2425;-55
2022/10/26 04:58:58;;;;;;;;;;;;;;;17.71;47.83;101146.81;4957386;28;1910;-56
2022/10/26 05:01:23;;;;;;;;;;;;;;;17.07;48.22;101143.31;4974855;28;1109;-59
2022/10/26 05:03:49;;;;;;;;;;;;;;;16.99;47.42;101163.06;4957687;28;1121;-60
2022/10/26 05:06:15;;;;;;;;;;;;;;;16.83;47.08;101164.03;4957905;28;1493;-58
2022/10/26 05:08:40;;;;;;;;;;;;;;;17.48;47.74;101177.56;4957635;28;1109;-58
2022/10/26 05:11:06;;;;;;;;;;;;;;;17.36;48.61;101173.13;4957385;28;1181;-59
2022/10/26 05:13:31;;;;;;;;;;;;;;;17.05;47.81;101178.47;4957658;28;1089;-54
2022/10/26 05:15:56;;;;;;;;;;;;;;;16.84;47.40;101190.41;4956457;29;1153;-59
2022/10/26 05:18:22;;;;;;;;;;;;;;;17.94;48.04;101195.03;4947780;28;1969;-59
2022/10/26 05:20:49;;;;;;;;;;;;;;;17.25;48.62;101187.91;4953817;29;1188;-58
2022/10/26 05:23:17;;;;;;;;;;;;;;;18.34;48.40;101197.25;4957220;28;1197;-59
2022/10/26 05:25:42;;;;;;;;;;;;;;;15.95;55.00;101201.78;4957260;28;1153;-55
2022/10/26 05:28:08;;;;;;;;;;;;;;;16.17;52.56;101206.34;4956513;28;2652;-55
2022/10/26 05:30:33;;;;;;;;;;;;;;;17.48;51.40;101200.38;4957040;28;1216;-58
2022/10/26 05:32:59;;;;;;;;;;;;;;;17.20;50.50;101196.94;4952944;28;1106;-59
2022/10/26 05:35:25;;;;;;;;;;;;;;;17.69;49.53;101215.00;4948926;28;1050;-58
2022/10/26 05:37:51;;;;;;;;;;;;;;;17.73;49.35;101218.88;4958332;28;1973;-57
2022/10/26 05:40:16;;;;;;;;;;;;;;;17.36;50.37;101217.13;4961261;28;1188;-59
2022/10/26 05:42:42;;;;;;;;;;;;;;;17.18;50.96;101215.66;4960832;28;1118;-56
2022/10/26 05:45:07;;;;;;;;;;;;;;;17.04;51.25;101219.94;4961113;28;1117;-56
2022/10/26 05:47:37;;;;;;;;;;;;;;;17.01;51.67;101226.81;4961124;28;1105;-56
2022/10/26 05:50:02;;;;;;;;;;;;;;;16.84;51.92;101228.84;4947713;28;1118;-59
2022/10/26 05:52:27;;;;;;;;;;;;;;;16.74;52.16;101235.94;4960587;28;1098;-56
2022/10/26 05:54:53;;;;;;;;;;;;;;;16.67;52.37;101235.31;4960765;28;1212;-58
2022/10/26 05:57:18;;;;;;;;;;;;;;;16.53;52.77;101236.88;4960394;28;2658;-58
2022/10/26 05:59:44;;;;;;;;;;;;;;;16.54;52.82;101241.28;4961255;28;1118;-55
2022/10/26 06:02:28;;;;;;;;;;;;;;;16.46;52.84;101237.09;4984984;28;1145;-55
2022/10/26 06:04:54;;;;;;;;;;;;;;;16.37;53.05;101241.41;4956127;29;1150;-55
2022/10/26 06:07:19;;;;;;;;;;;;;;;16.32;53.03;101236.69;4984524;28;1251;-56
2022/10/26 06:09:45;;;;;;;;;;;;;;;16.29;53.35;101241.88;4954093;28;1209;-56
2022/10/26 06:12:11;;;;;;;;;;;;;;;16.20;53.13;101238.75;4960390;28;1188;-56
2022/10/26 06:14:36;;;;;;;;;;;;;;;16.18;53.36;101239.03;4960691;28;1196;-55
2022/10/26 06:17:03;;;;;;;;;;;;;;;16.08;53.68;101242.50;4960550;28;1981;-56
2022/10/26 06:19:46;;;;;;;;;;;;;;;16.05;53.70;101237.53;4960252;28;1133;-55
2022/10/26 06:22:27;;;;;;;;;;;;;;;16.02;53.72;101248.19;4989586;28;1221;-56
2022/10/26 06:24:52;;;;;;;;;;;;;;;17.08;51.81;101257.63;4941598;29;1083;-58
2022/10/26 06:27:27;;;;;;;;;;;;;;;17.13;51.65;101256.00;4954508;29;2229;-56
2022/10/26 06:29:59;;;;;;;;;;;;;;;16.57;53.26;101254.47;4946622;29;1130;-56
2022/10/26 06:32:24;;;;;;;;;;;;;;;16.39;53.81;101262.00;4960338;28;1114;-53
2022/10/26 06:34:50;;;;;;;;;;;;;;;16.29;53.84;101258.34;4957170;28;1221;-55
2022/10/26 06:37:15;;;;;;;;;;;;;;;16.19;53.74;101259.91;4979719;28;1923;-55
2022/10/26 06:39:44;;;;;;;;;;;;;;;16.06;54.28;101266.63;4958095;29;1134;-54
2022/10/26 06:42:10;;;;;;;;;;;;;;;17.38;51.62;101258.88;4981656;28;1184;-56
2022/10/26 06:44:36;;;;;;;;;;;;;;;17.13;52.18;101261.50;4954616;28;1123;-57
2022/10/26 06:47:01;;;;;;;;;;;;;;;16.63;53.43;101264.41;4957499;29;866;-55
2022/10/26 06:49:37;;;;;;;;;;;;;;;16.45;54.01;101270.28;4958961;28;1101;-56
2022/10/26 06:52:16;;;;;;;;;;;;;;;16.31;54.19;101278.94;4983844;28;1171;-54
2022/10/26 06:54:48;;;;;;;;;;;;;;;16.24;54.13;101278.31;4955440;28;1137;-58
2022/10/26 06:57:14;;;;;;;;;;;;;;;16.09;54.43;101281.75;4959457;28;2502;-56
2022/10/26 06:59:47;;;;;;;;;;;;;;;16.07;54.42;101289.38;4960097;28;1207;-55
2022/10/26 07:02:13;;;;;;;;;;;;;;;17.48;51.64;101284.78;4983790;28;1144;-56
2022/10/26 07:04:40;;;;;;;;;;;;;;;16.75;53.33;101284.28;4953309;29;1130;-52
2022/10/26 07:07:06;;;;;;;;;;;;;;;16.42;54.10;101283.47;4959633;28;1228;-55
2022/10/26 07:09:31;;;;;;;;;;;;;;;16.36;54.29;101284.47;4959521;28;1145;-55
2022/10/26 07:11:56;;;;;;;;;;;;;;;16.25;54.99;101283.53;4959471;28;1201;-54
2022/10/26 07:14:22;;;;;;;;;;;;;;;16.18;54.85;101285.66;4945964;28;1149;-58
2022/10/26 07:16:47;;;;;;;;;;;;;;;16.12;54.83;101283.13;4948279;28;1977;-58
2022/10/26 07:19:13;;;;;;;;;;;;;;;16.48;54.39;101289.81;4956660;28;1176;-57
2022/10/26 07:21:38;;;;;;;;;;;;;;;17.47;52.22;101294.13;4953835;28;1133;-58
2022/10/26 07:24:04;;;;;;;;;;;;;;;16.75;54.12;101294.44;4959086;28;1248;-60
2022/10/26 07:26:29;;;;;;;;;;;;;;;16.51;54.54;101296.69;4959521;28;2274;-60
2022/10/26 07:28:55;;;;;;;;;;;;;;;16.40;54.73;101293.84;4958949;28;1169;-61
2022/10/26 07:31:20;;;;;;;;;;;;;;;16.28;54.61;101301.41;4958916;28;1200;-58
2022/10/26 07:33:45;;;;;;;;;;;;;;;16.79;54.16;101294.72;4958639;28;1149;-62
2022/10/26 07:36:11;;;;;;;;;;;;;;;17.53;52.12;101293.88;4960915;28;1098;-60
2022/10/26 07:38:37;;;;;;;;;;;;;;;16.81;54.12;101295.31;4969421;28;1902;-61
2022/10/26 07:41:02;;;;;;;;;;;;;;;16.59;54.47;101297.06;4958722;28;1142;-58
2022/10/26 07:43:28;;;;;;;;;;;;;;;16.50;54.79;101286.81;4959307;28;1090;-56
2022/10/26 07:45:53;;;;;;;;;;;;;;;16.43;54.79;101287.03;4958420;28;1126;-61
2022/10/26 07:48:19;;;;;;;;;;;;;;;16.33;54.81;101282.25;4958800;28;1216;-61
2022/10/26 07:50:44;;;;;;;;;;;;;;;16.30;54.82;101285.53;4948504;28;1137;-60
2022/10/26 07:53:10;;;;;;;;;;;;;;;16.21;54.74;101278.84;4955267;29;1129;-60
2022/10/26 07:55:35;;;;;;;;;;;;;;;16.16;54.83;101284.25;4959140;28;1138;-60
2022/10/26 07:58:00;;;;;;;;;;;;;;;17.27;53.09;101284.66;4958321;28;2692;-60
2022/10/26 08:00:27;;;;;;;;;;;;;;;17.10;53.61;101280.16;4958034;28;1114;-57
2022/10/26 08:02:53;;;;;;;;;;;;;;;16.67;54.70;101282.00;4945989;28;1145;-61
2022/10/26 08:05:18;;;;;;;;;;;;;;;16.51;55.09;101282.97;4956962;29;1117;-61
2022/10/26 08:07:44;;;;;;;;;;;;;;;16.40;55.17;101282.88;4958425;28;1212;-60
2022/10/26 08:10:09;;;;;;;;;;;;;;;16.34;54.80;101281.19;4957995;28;1114;-61
2022/10/26 08:12:35;;;;;;;;;;;;;;;16.21;54.95;101290.63;4958377;28;1055;-56
2022/10/26 08:15:00;;;;;;;;;;;;;;;16.16;55.20;101297.97;4958077;28;1180;-56
2022/10/26 08:17:27;;;;;;;;;;;;;;;16.40;55.09;101304.00;4958104;28;1910;-57
2022/10/26 08:19:52;;;;;;;;;;;;;;;17.70;52.16;101292.88;4958014;28;1141;-56
2022/10/26 08:22:18;;;;;;;;;;;;;;;16.90;54.16;101302.00;4957603;28;1223;-57
2022/10/26 08:24:45;;;;;;;;;;;;;;;16.60;54.94;101298.69;4951865;28;1161;-57
2022/10/26 08:27:11;;;;;;;;;;;;;;;16.49;55.10;101293.38;4951137;28;1870;-56
2022/10/26 08:29:37;;;;;;;;;;;;;;;16.37;55.25;101294.38;4958118;28;1081;-56
2022/10/26 08:32:02;;;;;;;;;;;;;;;16.28;55.46;101289.63;4958322;28;1216;-56
2022/10/26 08:34:28;;;;;;;;;;;;;;;16.19;55.46;101292.81;4957926;28;1201;-57
2022/10/26 08:36:53;;;;;;;;;;;;;;;16.18;55.35;101295.81;4957867;28;1910;-57
2022/10/26 08:39:19;;;;;;;;;;;;;;;17.27;53.60;101290.16;4958089;28;1126;-59
2022/10/26 08:41:45;;;;;;;;;;;;;;;17.12;54.01;101287.31;4958066;28;1149;-56
2022/10/26 08:44:19;;;;;;;;;;;;;;;16.67;55.04;101295.75;4976552;28;1160;-59
2022/10/26 08:46:45;;;;;;;;;;;;;;;16.49;55.47;101293.38;4957481;29;1079;-57
2022/10/26 08:49:11;;;;;;;;;;;;;;;16.41;55.63;101297.41;4977811;28;1113;-58
2022/10/26 08:51:37;;;;;;;;;;;;;;;16.32;55.70;101297.06;4956531;29;1083;-56
2022/10/26 08:54:09;;;;;;;;;;;;;;;16.26;55.64;101295.38;4957710;28;1228;-53
2022/10/26 08:56:37;;;;;;;;;;;;;;;17.22;54.06;101290.13;4956765;29;2340;-53
2022/10/26 08:59:24;;;;;;;;;;;;;;;17.23;53.90;101294.53;4988635;28;1906;-54
2022/10/26 09:01:49;;;;;;;;;;;;;;;16.72;55.11;101292.22;4957808;28;1169;-57
2022/10/26 09:04:15;;;;;;;;;;;;;;;16.56;55.42;101302.22;4957950;28;1082;-54
2022/10/26 09:06:46;;;;;;;;;;;;;;;16.45;55.67;101301.28;4988954;28;1164;-56
2022/10/26 09:09:13;;;;;;;;;;;;;;;16.35;55.78;101301.22;4957719;28;1199;-57
2022/10/26 09:11:42;;;;;;;;;;;;;;;16.28;55.78;101306.06;4987222;28;1121;-59
2022/10/26 09:14:18;;;;;;;;;;;;;;;16.25;55.54;101308.25;4960782;28;1106;-55
2022/10/26 09:16:49;;;;;;;;;;;;;;;16.18;55.88;101309.53;4961493;28;1150;-52
2022/10/26 09:19:35;;;;;;;;;;;;;;;17.65;53.54;101306.59;4961237;28;1106;-54
2022/10/26 09:22:00;;;;;;;;;;;;;;;16.98;55.08;101307.00;4948037;29;1300;-55
2022/10/26 09:24:28;;;;;;;;;;;;;;;16.67;55.66;101309.47;4960675;29;881;-53
2022/10/26 09:27:03;;;;;;;;;;;;;;;16.51;55.99;101310.41;4961220;28;1951;-56
2022/10/26 09:29:30;;;;;;;;;;;;;;;16.43;55.62;101308.97;4959935;29;1386;-55
2022/10/26 09:31:56;;;;;;;;;;;;;;;16.31;55.98;101306.38;4962015;28;1106;-56
2022/10/26 09:34:30;;;;;;;;;;;;;;;16.26;55.87;101303.59;4977881;28;1211;-57
2022/10/26 09:36:56;;;;;;;;;;;;;;;16.25;56.00;101312.91;4961006;28;1910;-58
2022/10/26 09:39:29;;;;;;;;;;;;;;;17.73;53.56;101303.34;4960554;28;1114;-59
2022/10/26 09:41:56;;;;;;;;;;;;;;;17.03;55.13;101301.56;4984202;28;1129;-55
2022/10/26 09:44:24;;;;;;;;;;;;;;;16.71;55.67;101310.59;4973299;28;1093;-56
2022/10/26 09:46:59;;;;;;;;;;;;;;;16.52;56.08;101301.09;4960920;28;1106;-52
2022/10/26 09:49:32;;;;;;;;;;;;;;;16.49;55.99;101309.84;4960717;28;1620;-55
2022/10/26 09:51:57;;;;;;;;;;;;;;;16.33;56.09;101297.91;4948247;29;1086;-55
2022/10/26 09:54:23;;;;;;;;;;;;;;;16.31;56.08;101300.06;4961043;28;1106;-52
2022/10/26 09:56:50;;;;;;;;;;;;;;;16.22;55.95;101302.44;4960504;28;2365;-56
2022/10/26 09:59:16;;;;;;;;;;;;;;;16.15;56.12;101294.41;4960167;28;1094;-54
2022/10/26 10:01:42;;;;;;;;;;;;;;;17.17;54.92;101298.34;4959270;29;1117;-57
2022/10/26 10:04:09;;;;;;;;;;;;;;;17.42;54.47;101295.75;4960570;28;1137;-58
2022/10/26 10:06:35;;;;;;;;;;;;;;;16.81;55.94;101298.06;4960579;28;1114;-53
2022/10/26 10:09:19;;;;;;;;;;;;;;;16.62;56.12;101295.72;4960838;28;1098;-56
2022/10/26 10:12:01;;;;;;;;;;;;;;;16.46;56.20;101297.47;4960448;28;1117;-52
2022/10/26 10:14:28;;;;;;;;;;;;;;;16.38;56.14;101301.53;4946841;28;1121;-52
2022/10/26 10:16:57;;;;;;;;;;;;;;;16.37;55.99;101299.88;4960386;28;1911;-56
2022/10/26 10:19:23;;;;;;;;;;;;;;;16.28;56.10;101301.41;4960105;28;1391;-54
2022/10/26 10:21:49;;;;;;;;;;;;;;;17.52;54.27;101302.41;4981205;28;1279;-54
2022/10/26 10:24:22;;;;;;;;;;;;;;;17.13;55.17;101288.97;4956396;28;1118;-58
2022/10/26 10:27:11;;;;;;;;;;;;;;;16.71;56.36;101288.63;4959977;28;2360;-58
2022/10/26 10:29:39;;;;;;;;;;;;;;;16.60;56.09;101295.94;4943907;29;1869;-58
2022/10/26 10:32:05;;;;;;;;;;;;;;;16.42;56.16;101291.69;4960583;28;1176;-56
2022/10/26 10:34:31;;;;;;;;;;;;;;;16.39;56.16;101292.19;4960244;28;1047;-57
2022/10/26 10:36:58;;;;;;;;;;;;;;;16.31;56.22;101284.41;4990963;28;1907;-56
2022/10/26 10:39:39;;;;;;;;;;;;;;;16.26;56.13;101287.13;4976830;28;1203;-57
2022/10/26 10:42:15;;;;;;;;;;;;;;;16.26;56.05;101287.13;4951329;28;1120;-54
2022/10/26 10:44:41;;;;;;;;;;;;;;;17.66;54.27;101286.25;4957102;29;1157;-54
2022/10/26 10:47:13;;;;;;;;;;;;;;;16.88;56.09;101290.41;4985306;28;1208;-56
2022/10/26 10:49:38;;;;;;;;;;;;;;;16.63;56.39;101286.38;4958537;29;1097;-51
2022/10/26 10:52:04;;;;;;;;;;;;;;;16.53;56.35;101291.78;4959969;28;1090;-53
2022/10/26 10:54:36;;;;;;;;;;;;;;;16.43;56.34;101287.03;4959431;28;1153;-53
2022/10/26 10:57:17;;;;;;;;;;;;;;;16.36;56.20;101286.41;4949587;29;2537;-52
2022/10/26 10:59:54;;;;;;;;;;;;;;;16.31;56.11;101289.09;4983139;28;1272;-56
2022/10/26 11:02:28;;;;;;;;;;;;;;;16.48;56.21;101291.72;4959048;28;1138;-53
2022/10/26 11:05:12;;;;;;;;;;;;;;;17.68;53.99;101287.63;4976673;28;1145;-54
2022/10/26 11:07:49;;;;;;;;;;;;;;;16.89;55.84;101281.13;4959787;29;1208;-56
2022/10/26 11:10:15;;;;;;;;;;;;;;;16.60;56.38;101281.41;4976944;28;1137;-57
2022/10/26 11:12:43;;;;;;;;;;;;;;;16.54;56.44;101280.53;4958874;28;1129;-56
2022/10/26 11:15:13;;;;;;;;;;;;;;;16.43;56.36;101276.03;4979271;28;1168;-53
2022/10/26 11:17:54;;;;;;;;;;;;;;;16.34;56.27;101272.94;4971447;28;1902;-53
2022/10/26 11:20:20;;;;;;;;;;;;;;;16.30;56.12;101274.56;4951874;28;1158;-59
2022/10/26 11:22:51;;;;;;;;;;;;;;;16.22;56.11;101280.50;4975964;28;1274;-57
2022/10/26 11:25:18;;;;;;;;;;;;;;;16.69;56.03;101285.34;4947560;28;915;-56
2022/10/26 11:27:51;;;;;;;;;;;;;;;17.54;54.52;101283.72;4955708;29;1856;-55
2022/10/26 11:30:18;;;;;;;;;;;;;;;16.83;56.31;101279.38;4979227;28;1121;-54
2022/10/26 11:32:47;;;;;;;;;;;;;;;16.60;56.50;101287.72;4955034;29;1122;-54
2022/10/26 11:35:12;;;;;;;;;;;;;;;16.52;56.20;101279.97;4957245;28;1106;-53
2022/10/26 11:37:43;;;;;;;;;;;;;;;16.40;56.21;101282.88;4957936;28;1891;-54
2022/10/26 11:40:09;;;;;;;;;;;;;;;16.36;56.21;101289.16;4982046;28;1157;-59
2022/10/26 11:42:41;;;;;;;;;;;;;;;16.29;56.29;101283.03;4952018;29;1208;-57
2022/10/26 11:45:23;;;;;;;;;;;;;;;16.22;56.02;101281.31;4945234;29;1158;-58
2022/10/26 11:47:50;;;;;;;;;;;;;;;16.64;56.25;101282.53;4957149;28;1307;-56
2022/10/26 11:50:17;;;;;;;;;;;;;;;17.48;54.78;101282.03;4938577;28;1101;-56
2022/10/26 11:52:43;;;;;;;;;;;;;;;16.82;56.26;101283.25;4951374;29;1132;-56
2022/10/26 11:55:09;;;;;;;;;;;;;;;16.60;56.47;101275.91;4957999;28;1240;-56
2022/10/26 11:57:35;;;;;;;;;;;;;;;16.44;56.75;101274.97;4958243;28;2447;-54
2022/10/26 12:00:04;;;;;;;;;;;;;;;16.39;56.41;101275.72;4978050;28;1179;-53
2022/10/26 12:02:30;;;;;;;;;;;;;;;16.35;56.35;101274.59;4958067;28;1185;-56
2022/10/26 12:04:59;;;;;;;;;;;;;;;16.23;56.45;101268.44;4956781;28;1185;-52
2022/10/26 12:07:25;;;;;;;;;;;;;;;16.19;56.27;101267.31;4980562;28;1219;-55
2022/10/26 12:09:51;;;;;;;;;;;;;;;17.47;55.06;101283.13;4952187;28;1213;-58
2022/10/26 12:12:34;;;;;;;;;;;;;;;17.14;55.76;101274.13;4957764;28;1098;-56
2022/10/26 12:15:03;;;;;;;;;;;;;;;16.71;56.65;101283.13;4957303;28;1109;-56
2022/10/26 12:17:35;;;;;;;;;;;;;;;16.59;56.79;101274.25;4957493;28;1914;-57
2022/10/26 12:20:27;;;;;;;;;;;;;;;16.46;56.76;101271.94;4957482;28;1137;-55
2022/10/26 12:22:52;;;;;;;;;;;;;;;16.38;56.61;101274.09;4897202;29;1201626;-54
2022/10/26 12:25:19;;;;;;;;;;;;;;;16.35;56.17;101280.06;4952838;29;941;-54
2022/10/26 12:27:44;;;;;;;;;;;;;;;16.29;56.20;101281.13;4958126;28;2378;-54
2022/10/26 12:30:22;;;;;;;;;;;;;;;16.17;56.50;101284.03;4958096;28;1149;-54
2022/10/26 12:32:48;;;;;;;;;;;;;;;17.42;55.26;101287.50;4958179;28;1126;-55
2022/10/26 12:35:29;;;;;;;;;;;;;;;17.03;56.02;101290.56;4957770;28;1136;-54
2022/10/26 12:37:55;;;;;;;;;;;;;;;16.67;56.83;101298.47;4957491;28;1911;-54
2022/10/26 12:40:29;;;;;;;;;;;;;;;16.51;56.74;101303.03;4958161;28;1208;-56
2022/10/26 12:42:55;;;;;;;;;;;;;;;16.45;56.69;101303.22;4957866;28;1149;-55
2022/10/26 12:45:20;;;;;;;;;;;;;;;16.31;56.79;101300.06;4957617;28;1138;-56
2022/10/26 12:47:48;;;;;;;;;;;;;;;16.25;56.38;101297.25;4956845;28;1122;-54
2022/10/26 12:50:14;;;;;;;;;;;;;;;16.20;56.40;101305.47;4957998;28;1204;-57
2022/10/26 12:52:43;;;;;;;;;;;;;;;17.47;55.03;101296.88;4957775;28;1098;-56